sensor_id;sensor_type;location;lat;lon;timestamp;P1;durP1;ratioP1;P2;durP2;ratioP2
49510;SDS011;35413;48.776;9.204;2023-02-08T00:00:21;3.30;;;1.70;;
49510;SDS011;35413;48.776;9.204;2023-02-08T00:02:47;3.08;;;2.42;;
49510;SDS011;35413;48.776;9.204;2023-02-08T00:05:13;4.13;;;2.38;;
49510;SDS011;35413;48.776;9.204;2023-02-08T00:07:39;4.65;;;1.83;;
49510;SDS011;35413;48.776;9.204;2023-02-08T00:10:05;2.83;;;2.33;;
49510;SDS011;35413;48.776;9.204;2023-02-08T00:12:32;3.38;;;2.20;;
49510;SDS011;35413;48.776;9.204;2023-02-08T00:14:58;3.42;;;2.05;;
49510;SDS011;35413;48.776;9.204;2023-02-08T00:17:24;3.35;;;2.40;;
49510;SDS011;35413;48.776;9.204;2023-02-08T00:19:50;4.05;;;2.20;;
49510;SDS011;35413;48.776;9.204;2023-02-08T00:22:16;2.83;;;2.08;;
49510;SDS011;35413;48.776;9.204;2023-02-08T00:24:42;3.15;;;2.17;;
49510;SDS011;35413;48.776;9.204;2023-02-08T00:27:08;3.95;;;2.42;;
49510;SDS011;35413;48.776;9.204;2023-02-08T00:29:34;2.70;;;2.00;;
49510;SDS011;35413;48.776;9.204;2023-02-08T00:32:00;3.42;;;2.00;;
49510;SDS011;35413;48.776;9.204;2023-02-08T00:34:26;3.05;;;2.10;;
49510;SDS011;35413;48.776;9.204;2023-02-08T00:36:52;3.17;;;1.98;;
49510;SDS011;35413;48.776;9.204;2023-02-08T00:39:18;2.88;;;1.95;;
49510;SDS011;35413;48.776;9.204;2023-02-08T00:41:45;3.38;;;2.47;;
49510;SDS011;35413;48.776;9.204;2023-02-08T00:44:11;3.47;;;2.35;;
49510;SDS011;35413;48.776;9.204;2023-02-08T00:46:37;2.88;;;1.90;;
49510;SDS011;35413;48.776;9.204;2023-02-08T00:49:03;3.35;;;1.80;;
49510;SDS011;35413;48.776;9.204;2023-02-08T00:51:29;2.72;;;1.90;;
49510;SDS011;35413;48.776;9.204;2023-02-08T00:53:55;2.85;;;2.00;;
49510;SDS011;35413;48.776;9.204;2023-02-08T00:56:21;3.05;;;2.00;;
49510;SDS011;35413;48.776;9.204;2023-02-08T00:58:47;2.40;;;1.95;;
49510;SDS011;35413;48.776;9.204;2023-02-08T01:01:13;4.13;;;2.22;;
49510;SDS011;35413;48.776;9.204;2023-02-08T01:03:39;4.57;;;2.30;;
49510;SDS011;35413;48.776;9.204;2023-02-08T01:06:07;2.78;;;1.95;;
49510;SDS011;35413;48.776;9.204;2023-02-08T01:08:34;3.22;;;2.10;;
49510;SDS011;35413;48.776;9.204;2023-02-08T01:11:10;3.53;;;2.22;;
49510;SDS011;35413;48.776;9.204;2023-02-08T01:13:37;2.42;;;1.80;;
49510;SDS011;35413;48.776;9.204;2023-02-08T01:16:24;2.50;;;1.88;;
49510;SDS011;35413;48.776;9.204;2023-02-08T01:18:51;3.38;;;2.03;;
49510;SDS011;35413;48.776;9.204;2023-02-08T01:21:18;3.28;;;2.33;;
49510;SDS011;35413;48.776;9.204;2023-02-08T01:23:45;3.17;;;2.40;;
49510;SDS011;35413;48.776;9.204;2023-02-08T01:26:11;3.55;;;1.92;;
49510;SDS011;35413;48.776;9.204;2023-02-08T01:28:38;3.08;;;1.77;;
49510;SDS011;35413;48.776;9.204;2023-02-08T01:31:08;3.10;;;1.98;;
49510;SDS011;35413;48.776;9.204;2023-02-08T01:33:34;2.72;;;1.92;;
49510;SDS011;35413;48.776;9.204;2023-02-08T01:36:01;3.38;;;2.00;;
49510;SDS011;35413;48.776;9.204;2023-02-08T01:38:27;3.85;;;2.10;;
49510;SDS011;35413;48.776;9.204;2023-02-08T01:40:53;2.97;;;1.67;;
49510;SDS011;35413;48.776;9.204;2023-02-08T01:43:21;3.22;;;2.10;;
49510;SDS011;35413;48.776;9.204;2023-02-08T01:45:48;2.92;;;1.98;;
49510;SDS011;35413;48.776;9.204;2023-02-08T01:48:16;3.15;;;1.83;;
49510;SDS011;35413;48.776;9.204;2023-02-08T01:50:46;3.92;;;2.22;;
49510;SDS011;35413;48.776;9.204;2023-02-08T01:53:14;2.85;;;1.90;;
49510;SDS011;35413;48.776;9.204;2023-02-08T01:55:42;3.08;;;2.00;;
49510;SDS011;35413;48.776;9.204;2023-02-08T01:58:09;2.45;;;1.73;;
49510;SDS011;35413;48.776;9.204;2023-02-08T02:00:36;2.92;;;2.10;;
49510;SDS011;35413;48.776;9.204;2023-02-08T02:03:02;2.20;;;1.70;;
49510;SDS011;35413;48.776;9.204;2023-02-08T02:05:33;3.53;;;1.90;;
49510;SDS011;35413;48.776;9.204;2023-02-08T02:08:00;3.65;;;1.80;;
49510;SDS011;35413;48.776;9.204;2023-02-08T02:10:27;2.47;;;1.90;;
49510;SDS011;35413;48.776;9.204;2023-02-08T02:12:53;2.72;;;2.00;;
49510;SDS011;35413;48.776;9.204;2023-02-08T02:15:20;2.90;;;1.75;;
49510;SDS011;35413;48.776;9.204;2023-02-08T02:17:46;2.80;;;1.83;;
49510;SDS011;35413;48.776;9.204;2023-02-08T02:22:58;2.50;;;1.67;;
49510;SDS011;35413;48.776;9.204;2023-02-08T02:33:41;3.60;;;1.88;;
49510;SDS011;35413;48.776;9.204;2023-02-08T02:36:23;2.63;;;1.80;;
49510;SDS011;35413;48.776;9.204;2023-02-08T02:47:12;3.90;;;2.33;;
49510;SDS011;35413;48.776;9.204;2023-02-08T02:49:46;2.60;;;1.83;;
49510;SDS011;35413;48.776;9.204;2023-02-08T02:52:27;3.00;;;2.10;;
49510;SDS011;35413;48.776;9.204;2023-02-08T02:54:57;2.90;;;2.03;;
49510;SDS011;35413;48.776;9.204;2023-02-08T02:57:27;2.58;;;1.80;;
49510;SDS011;35413;48.776;9.204;2023-02-08T02:59:56;3.00;;;2.42;;
49510;SDS011;35413;48.776;9.204;2023-02-08T03:02:23;2.83;;;2.03;;
49510;SDS011;35413;48.776;9.204;2023-02-08T03:04:51;3.20;;;2.00;;
49510;SDS011;35413;48.776;9.204;2023-02-08T03:14:56;3.97;;;2.00;;
49510;SDS011;35413;48.776;9.204;2023-02-08T03:19:54;3.20;;;2.10;;
49510;SDS011;35413;48.776;9.204;2023-02-08T03:24:58;3.05;;;2.20;;
49510;SDS011;35413;48.776;9.204;2023-02-08T03:35:08;3.15;;;2.00;;
49510;SDS011;35413;48.776;9.204;2023-02-08T03:37:39;3.92;;;2.30;;
49510;SDS011;35413;48.776;9.204;2023-02-08T03:40:15;2.50;;;1.70;;
49510;SDS011;35413;48.776;9.204;2023-02-08T03:42:43;2.80;;;2.03;;
49510;SDS011;35413;48.776;9.204;2023-02-08T03:45:11;3.30;;;1.77;;
49510;SDS011;35413;48.776;9.204;2023-02-08T03:47:39;2.75;;;2.25;;
49510;SDS011;35413;48.776;9.204;2023-02-08T03:50:07;3.13;;;2.17;;
49510;SDS011;35413;48.776;9.204;2023-02-08T03:52:34;2.90;;;2.00;;
49510;SDS011;35413;48.776;9.204;2023-02-08T03:55:01;3.30;;;2.30;;
49510;SDS011;35413;48.776;9.204;2023-02-08T03:57:29;3.33;;;1.90;;
49510;SDS011;35413;48.776;9.204;2023-02-08T03:59:57;2.92;;;1.98;;
49510;SDS011;35413;48.776;9.204;2023-02-08T04:02:26;2.35;;;2.00;;
49510;SDS011;35413;48.776;9.204;2023-02-08T04:04:52;2.88;;;1.88;;
49510;SDS011;35413;48.776;9.204;2023-02-08T04:07:20;2.47;;;1.90;;
49510;SDS011;35413;48.776;9.204;2023-02-08T04:09:46;3.55;;;2.42;;
49510;SDS011;35413;48.776;9.204;2023-02-08T04:12:12;2.83;;;2.28;;
49510;SDS011;35413;48.776;9.204;2023-02-08T04:14:38;2.70;;;2.10;;
49510;SDS011;35413;48.776;9.204;2023-02-08T04:17:04;3.03;;;1.90;;
49510;SDS011;35413;48.776;9.204;2023-02-08T04:19:30;3.40;;;1.85;;
49510;SDS011;35413;48.776;9.204;2023-02-08T04:21:56;3.28;;;2.30;;
49510;SDS011;35413;48.776;9.204;2023-02-08T04:24:22;2.53;;;1.88;;
49510;SDS011;35413;48.776;9.204;2023-02-08T04:26:48;2.65;;;1.85;;
49510;SDS011;35413;48.776;9.204;2023-02-08T04:29:14;2.67;;;2.13;;
49510;SDS011;35413;48.776;9.204;2023-02-08T04:31:40;3.63;;;2.45;;
49510;SDS011;35413;48.776;9.204;2023-02-08T04:34:06;4.07;;;2.55;;
49510;SDS011;35413;48.776;9.204;2023-02-08T04:36:32;2.63;;;2.22;;
49510;SDS011;35413;48.776;9.204;2023-02-08T04:38:58;2.35;;;1.83;;
49510;SDS011;35413;48.776;9.204;2023-02-08T04:41:24;4.00;;;1.90;;
49510;SDS011;35413;48.776;9.204;2023-02-08T04:43:50;2.80;;;2.17;;
49510;SDS011;35413;48.776;9.204;2023-02-08T04:46:16;2.50;;;2.15;;
49510;SDS011;35413;48.776;9.204;2023-02-08T04:48:42;2.42;;;2.08;;
49510;SDS011;35413;48.776;9.204;2023-02-08T04:51:08;2.83;;;2.13;;
49510;SDS011;35413;48.776;9.204;2023-02-08T04:53:34;3.08;;;2.20;;
49510;SDS011;35413;48.776;9.204;2023-02-08T04:56:00;3.38;;;2.15;;
49510;SDS011;35413;48.776;9.204;2023-02-08T04:58:26;3.35;;;2.25;;
49510;SDS011;35413;48.776;9.204;2023-02-08T05:00:52;2.90;;;2.08;;
49510;SDS011;35413;48.776;9.204;2023-02-08T05:03:18;3.45;;;2.10;;
49510;SDS011;35413;48.776;9.204;2023-02-08T05:05:44;2.55;;;1.90;;
49510;SDS011;35413;48.776;9.204;2023-02-08T05:08:10;3.75;;;2.25;;
49510;SDS011;35413;48.776;9.204;2023-02-08T05:10:36;2.88;;;1.92;;
49510;SDS011;35413;48.776;9.204;2023-02-08T05:13:02;3.33;;;2.33;;
49510;SDS011;35413;48.776;9.204;2023-02-08T05:15:28;2.67;;;2.22;;
49510;SDS011;35413;48.776;9.204;2023-02-08T05:17:54;3.08;;;1.98;;
49510;SDS011;35413;48.776;9.204;2023-02-08T05:20:20;2.78;;;1.83;;
49510;SDS011;35413;48.776;9.204;2023-02-08T05:22:46;3.05;;;1.98;;
49510;SDS011;35413;48.776;9.204;2023-02-08T05:25:12;3.03;;;2.20;;
49510;SDS011;35413;48.776;9.204;2023-02-08T05:27:38;3.03;;;2.00;;
49510;SDS011;35413;48.776;9.204;2023-02-08T05:30:04;3.25;;;2.60;;
49510;SDS011;35413;48.776;9.204;2023-02-08T05:32:30;3.25;;;2.33;;
49510;SDS011;35413;48.776;9.204;2023-02-08T05:34:56;3.00;;;2.50;;
49510;SDS011;35413;48.776;9.204;2023-02-08T05:37:22;3.33;;;2.15;;
49510;SDS011;35413;48.776;9.204;2023-02-08T05:39:48;3.40;;;2.25;;
49510;SDS011;35413;48.776;9.204;2023-02-08T05:42:14;3.10;;;2.47;;
49510;SDS011;35413;48.776;9.204;2023-02-08T05:44:40;2.60;;;2.05;;
49510;SDS011;35413;48.776;9.204;2023-02-08T05:47:06;2.90;;;1.95;;
49510;SDS011;35413;48.776;9.204;2023-02-08T05:49:32;3.30;;;2.47;;
49510;SDS011;35413;48.776;9.204;2023-02-08T05:51:58;4.13;;;2.40;;
49510;SDS011;35413;48.776;9.204;2023-02-08T05:54:24;3.22;;;2.25;;
49510;SDS011;35413;48.776;9.204;2023-02-08T05:56:50;3.17;;;2.45;;
49510;SDS011;35413;48.776;9.204;2023-02-08T05:59:16;3.70;;;2.53;;
49510;SDS011;35413;48.776;9.204;2023-02-08T06:01:42;3.53;;;2.20;;
49510;SDS011;35413;48.776;9.204;2023-02-08T06:04:08;2.92;;;2.20;;
49510;SDS011;35413;48.776;9.204;2023-02-08T06:06:34;3.22;;;2.30;;
49510;SDS011;35413;48.776;9.204;2023-02-08T06:09:00;3.60;;;2.28;;
49510;SDS011;35413;48.776;9.204;2023-02-08T06:11:26;3.42;;;2.55;;
49510;SDS011;35413;48.776;9.204;2023-02-08T06:13:52;3.70;;;2.30;;
49510;SDS011;35413;48.776;9.204;2023-02-08T06:16:18;3.38;;;2.10;;
49510;SDS011;35413;48.776;9.204;2023-02-08T06:18:44;2.47;;;1.90;;
49510;SDS011;35413;48.776;9.204;2023-02-08T06:21:10;3.45;;;2.50;;
49510;SDS011;35413;48.776;9.204;2023-02-08T06:23:37;3.78;;;2.30;;
49510;SDS011;35413;48.776;9.204;2023-02-08T06:26:03;3.97;;;2.55;;
49510;SDS011;35413;48.776;9.204;2023-02-08T06:28:29;3.55;;;2.30;;
49510;SDS011;35413;48.776;9.204;2023-02-08T06:30:55;3.65;;;2.47;;
49510;SDS011;35413;48.776;9.204;2023-02-08T06:33:21;3.08;;;2.20;;
49510;SDS011;35413;48.776;9.204;2023-02-08T06:35:49;3.42;;;2.42;;
49510;SDS011;35413;48.776;9.204;2023-02-08T06:38:15;2.78;;;2.03;;
49510;SDS011;35413;48.776;9.204;2023-02-08T06:40:41;4.78;;;3.33;;
49510;SDS011;35413;48.776;9.204;2023-02-08T06:43:07;3.97;;;2.58;;
49510;SDS011;35413;48.776;9.204;2023-02-08T06:45:33;2.70;;;2.00;;
49510;SDS011;35413;48.776;9.204;2023-02-08T06:47:59;3.58;;;1.95;;
49510;SDS011;35413;48.776;9.204;2023-02-08T06:50:25;7.05;;;2.83;;
49510;SDS011;35413;48.776;9.204;2023-02-08T06:52:51;4.30;;;1.80;;
49510;SDS011;35413;48.776;9.204;2023-02-08T06:55:17;3.08;;;2.05;;
49510;SDS011;35413;48.776;9.204;2023-02-08T06:57:43;4.55;;;2.13;;
49510;SDS011;35413;48.776;9.204;2023-02-08T07:00:09;3.17;;;2.00;;
49510;SDS011;35413;48.776;9.204;2023-02-08T07:02:35;3.22;;;1.90;;
49510;SDS011;35413;48.776;9.204;2023-02-08T07:05:01;3.80;;;2.55;;
49510;SDS011;35413;48.776;9.204;2023-02-08T07:07:27;3.13;;;2.00;;
49510;SDS011;35413;48.776;9.204;2023-02-08T07:09:53;3.33;;;2.35;;
49510;SDS011;35413;48.776;9.204;2023-02-08T07:12:19;4.72;;;2.75;;
49510;SDS011;35413;48.776;9.204;2023-02-08T07:14:45;3.70;;;2.70;;
49510;SDS011;35413;48.776;9.204;2023-02-08T07:17:11;4.55;;;2.13;;
49510;SDS011;35413;48.776;9.204;2023-02-08T07:19:38;5.18;;;2.13;;
49510;SDS011;35413;48.776;9.204;2023-02-08T07:22:04;2.90;;;1.90;;
49510;SDS011;35413;48.776;9.204;2023-02-08T07:24:34;7.20;;;2.20;;
49510;SDS011;35413;48.776;9.204;2023-02-08T07:27:00;5.45;;;2.60;;
49510;SDS011;35413;48.776;9.204;2023-02-08T07:29:27;4.57;;;3.00;;
49510;SDS011;35413;48.776;9.204;2023-02-08T07:31:53;4.85;;;2.67;;
49510;SDS011;35413;48.776;9.204;2023-02-08T07:34:19;6.18;;;2.22;;
49510;SDS011;35413;48.776;9.204;2023-02-08T07:36:46;2.90;;;2.30;;
49510;SDS011;35413;48.776;9.204;2023-02-08T07:39:13;3.60;;;2.50;;
49510;SDS011;35413;48.776;9.204;2023-02-08T07:41:39;4.38;;;2.40;;
49510;SDS011;35413;48.776;9.204;2023-02-08T07:44:05;4.68;;;2.17;;
49510;SDS011;35413;48.776;9.204;2023-02-08T07:46:31;3.50;;;2.00;;
49510;SDS011;35413;48.776;9.204;2023-02-08T07:48:58;4.18;;;2.10;;
49510;SDS011;35413;48.776;9.204;2023-02-08T07:51:24;3.13;;;2.10;;
49510;SDS011;35413;48.776;9.204;2023-02-08T07:53:50;4.57;;;2.60;;
49510;SDS011;35413;48.776;9.204;2023-02-08T07:56:16;4.45;;;2.30;;
49510;SDS011;35413;48.776;9.204;2023-02-08T07:58:42;4.60;;;2.70;;
49510;SDS011;35413;48.776;9.204;2023-02-08T08:01:09;6.28;;;2.65;;
49510;SDS011;35413;48.776;9.204;2023-02-08T08:03:35;3.55;;;2.17;;
49510;SDS011;35413;48.776;9.204;2023-02-08T08:06:01;5.47;;;2.70;;
49510;SDS011;35413;48.776;9.204;2023-02-08T08:08:27;3.55;;;2.03;;
49510;SDS011;35413;48.776;9.204;2023-02-08T08:10:53;3.40;;;2.30;;
49510;SDS011;35413;48.776;9.204;2023-02-08T08:13:21;4.95;;;1.95;;
49510;SDS011;35413;48.776;9.204;2023-02-08T08:15:47;4.75;;;2.58;;
49510;SDS011;35413;48.776;9.204;2023-02-08T08:18:13;4.28;;;2.42;;
49510;SDS011;35413;48.776;9.204;2023-02-08T08:20:39;3.70;;;2.55;;
49510;SDS011;35413;48.776;9.204;2023-02-08T08:23:05;3.45;;;2.50;;
49510;SDS011;35413;48.776;9.204;2023-02-08T08:25:31;5.22;;;2.38;;
49510;SDS011;35413;48.776;9.204;2023-02-08T08:27:57;3.72;;;2.83;;
49510;SDS011;35413;48.776;9.204;2023-02-08T08:30:23;3.95;;;2.50;;
49510;SDS011;35413;48.776;9.204;2023-02-08T08:32:49;3.60;;;2.20;;
49510;SDS011;35413;48.776;9.204;2023-02-08T08:35:15;3.70;;;2.63;;
49510;SDS011;35413;48.776;9.204;2023-02-08T08:37:41;6.80;;;3.00;;
49510;SDS011;35413;48.776;9.204;2023-02-08T08:40:07;9.63;;;2.90;;
49510;SDS011;35413;48.776;9.204;2023-02-08T08:42:33;4.15;;;2.65;;
49510;SDS011;35413;48.776;9.204;2023-02-08T08:45:00;5.53;;;2.95;;
49510;SDS011;35413;48.776;9.204;2023-02-08T08:47:26;4.95;;;2.20;;
49510;SDS011;35413;48.776;9.204;2023-02-08T08:49:52;4.13;;;2.67;;
49510;SDS011;35413;48.776;9.204;2023-02-08T08:52:19;4.28;;;2.58;;
49510;SDS011;35413;48.776;9.204;2023-02-08T08:54:45;4.68;;;2.30;;
49510;SDS011;35413;48.776;9.204;2023-02-08T08:57:11;3.80;;;2.60;;
49510;SDS011;35413;48.776;9.204;2023-02-08T08:59:37;3.72;;;2.70;;
49510;SDS011;35413;48.776;9.204;2023-02-08T09:02:03;3.92;;;2.33;;
49510;SDS011;35413;48.776;9.204;2023-02-08T09:04:29;5.45;;;2.50;;
49510;SDS011;35413;48.776;9.204;2023-02-08T09:06:55;4.35;;;2.28;;
49510;SDS011;35413;48.776;9.204;2023-02-08T09:09:21;5.20;;;3.20;;
49510;SDS011;35413;48.776;9.204;2023-02-08T09:11:48;4.50;;;2.65;;
49510;SDS011;35413;48.776;9.204;2023-02-08T09:14:14;3.80;;;2.47;;
49510;SDS011;35413;48.776;9.204;2023-02-08T09:16:40;6.38;;;2.45;;
49510;SDS011;35413;48.776;9.204;2023-02-08T09:19:08;4.85;;;2.90;;
49510;SDS011;35413;48.776;9.204;2023-02-08T09:21:35;6.15;;;3.03;;
49510;SDS011;35413;48.776;9.204;2023-02-08T09:24:01;4.07;;;2.17;;
49510;SDS011;35413;48.776;9.204;2023-02-08T09:26:27;4.10;;;2.55;;
49510;SDS011;35413;48.776;9.204;2023-02-08T09:28:53;4.60;;;2.70;;
49510;SDS011;35413;48.776;9.204;2023-02-08T09:33:49;4.13;;;2.67;;
49510;SDS011;35413;48.776;9.204;2023-02-08T09:36:15;4.25;;;2.65;;
49510;SDS011;35413;48.776;9.204;2023-02-08T09:38:42;6.40;;;2.60;;
49510;SDS011;35413;48.776;9.204;2023-02-08T09:43:36;4.90;;;3.08;;
49510;SDS011;35413;48.776;9.204;2023-02-08T09:46:10;3.65;;;2.50;;
49510;SDS011;35413;48.776;9.204;2023-02-08T09:48:37;5.05;;;2.92;;
49510;SDS011;35413;48.776;9.204;2023-02-08T09:53:51;5.50;;;3.15;;
49510;SDS011;35413;48.776;9.204;2023-02-08T09:56:21;4.65;;;2.80;;
49510;SDS011;35413;48.776;9.204;2023-02-08T09:58:51;4.32;;;2.78;;
49510;SDS011;35413;48.776;9.204;2023-02-08T10:01:20;3.40;;;2.45;;
49510;SDS011;35413;48.776;9.204;2023-02-08T10:03:46;4.72;;;2.35;;
49510;SDS011;35413;48.776;9.204;2023-02-08T10:06:14;6.30;;;2.80;;
49510;SDS011;35413;48.776;9.204;2023-02-08T10:08:41;2.90;;;2.17;;
49510;SDS011;35413;48.776;9.204;2023-02-08T10:19:28;5.18;;;2.78;;
49510;SDS011;35413;48.776;9.204;2023-02-08T10:26:44;4.50;;;2.90;;
49510;SDS011;35413;48.776;9.204;2023-02-08T10:29:20;4.10;;;2.63;;
49510;SDS011;35413;48.776;9.204;2023-02-08T10:36:57;3.28;;;2.40;;
49510;SDS011;35413;48.776;9.204;2023-02-08T10:39:27;6.85;;;3.20;;
49510;SDS011;35413;48.776;9.204;2023-02-08T10:41:54;5.00;;;3.05;;
49510;SDS011;35413;48.776;9.204;2023-02-08T10:44:25;4.50;;;2.40;;
49510;SDS011;35413;48.776;9.204;2023-02-08T10:47:19;7.90;;;3.03;;
49510;SDS011;35413;48.776;9.204;2023-02-08T10:52:14;4.05;;;2.85;;
49510;SDS011;35413;48.776;9.204;2023-02-08T10:54:40;3.60;;;2.28;;
49510;SDS011;35413;48.776;9.204;2023-02-08T10:57:10;6.35;;;3.03;;
49510;SDS011;35413;48.776;9.204;2023-02-08T10:59:48;4.10;;;3.17;;
49510;SDS011;35413;48.776;9.204;2023-02-08T11:07:17;8.40;;;3.55;;
49510;SDS011;35413;48.776;9.204;2023-02-08T11:12:14;20.63;;;7.63;;
49510;SDS011;35413;48.776;9.204;2023-02-08T11:14:46;16.05;;;7.50;;
49510;SDS011;35413;48.776;9.204;2023-02-08T11:17:28;12.23;;;7.25;;
49510;SDS011;35413;48.776;9.204;2023-02-08T11:19:55;17.25;;;7.25;;
49510;SDS011;35413;48.776;9.204;2023-02-08T11:22:23;13.75;;;6.85;;
49510;SDS011;35413;48.776;9.204;2023-02-08T11:24:55;13.73;;;7.22;;
49510;SDS011;35413;48.776;9.204;2023-02-08T11:30:09;14.38;;;6.07;;
49510;SDS011;35413;48.776;9.204;2023-02-08T11:32:36;13.13;;;6.22;;
49510;SDS011;35413;48.776;9.204;2023-02-08T11:35:17;11.63;;;6.28;;
49510;SDS011;35413;48.776;9.204;2023-02-08T11:37:50;9.98;;;5.65;;
49510;SDS011;35413;48.776;9.204;2023-02-08T11:40:18;10.77;;;5.43;;
49510;SDS011;35413;48.776;9.204;2023-02-08T11:42:45;9.07;;;4.78;;
49510;SDS011;35413;48.776;9.204;2023-02-08T11:45:22;8.30;;;4.82;;
49510;SDS011;35413;48.776;9.204;2023-02-08T11:47:49;9.90;;;4.57;;
49510;SDS011;35413;48.776;9.204;2023-02-08T11:50:25;12.90;;;5.97;;
49510;SDS011;35413;48.776;9.204;2023-02-08T11:52:59;13.18;;;4.75;;
49510;SDS011;35413;48.776;9.204;2023-02-08T11:55:27;10.85;;;4.28;;
49510;SDS011;35413;48.776;9.204;2023-02-08T12:00:38;8.85;;;3.55;;
49510;SDS011;35413;48.776;9.204;2023-02-08T12:03:12;13.88;;;4.32;;
49510;SDS011;35413;48.776;9.204;2023-02-08T12:10:47;7.13;;;3.72;;
49510;SDS011;35413;48.776;9.204;2023-02-08T12:13:24;7.55;;;3.67;;
49510;SDS011;35413;48.776;9.204;2023-02-08T12:21:24;10.88;;;3.55;;
49510;SDS011;35413;48.776;9.204;2023-02-08T12:23:52;6.30;;;3.05;;
49510;SDS011;35413;48.776;9.204;2023-02-08T12:31:32;5.38;;;3.20;;
49510;SDS011;35413;48.776;9.204;2023-02-08T12:36:42;4.90;;;2.97;;
49510;SDS011;35413;48.776;9.204;2023-02-08T12:42:20;6.30;;;2.92;;
49510;SDS011;35413;48.776;9.204;2023-02-08T12:50:24;6.97;;;3.58;;
49510;SDS011;35413;48.776;9.204;2023-02-08T12:52:53;4.78;;;3.15;;
49510;SDS011;35413;48.776;9.204;2023-02-08T12:55:33;6.50;;;3.28;;
49510;SDS011;35413;48.776;9.204;2023-02-08T12:58:04;5.07;;;2.60;;
49510;SDS011;35413;48.776;9.204;2023-02-08T13:00:31;6.57;;;2.67;;
49510;SDS011;35413;48.776;9.204;2023-02-08T13:05:44;6.15;;;3.10;;
49510;SDS011;35413;48.776;9.204;2023-02-08T13:08:15;5.43;;;3.10;;
49510;SDS011;35413;48.776;9.204;2023-02-08T13:10:45;5.43;;;3.38;;
49510;SDS011;35413;48.776;9.204;2023-02-08T13:13:19;4.88;;;2.83;;
49510;SDS011;35413;48.776;9.204;2023-02-08T13:18:34;5.22;;;2.90;;
49510;SDS011;35413;48.776;9.204;2023-02-08T13:21:04;5.20;;;3.13;;
49510;SDS011;35413;48.776;9.204;2023-02-08T13:23:44;6.72;;;3.10;;
49510;SDS011;35413;48.776;9.204;2023-02-08T13:28:45;6.30;;;3.17;;
49510;SDS011;35413;48.776;9.204;2023-02-08T13:31:14;5.47;;;3.37;;
49510;SDS011;35413;48.776;9.204;2023-02-08T13:33:42;6.25;;;3.35;;
49510;SDS011;35413;48.776;9.204;2023-02-08T13:36:18;6.53;;;3.25;;
49510;SDS011;35413;48.776;9.204;2023-02-08T13:38:45;7.22;;;2.78;;
49510;SDS011;35413;48.776;9.204;2023-02-08T13:41:14;4.95;;;2.65;;
49510;SDS011;35413;48.776;9.204;2023-02-08T13:43:42;5.82;;;3.35;;
49510;SDS011;35413;48.776;9.204;2023-02-08T13:46:11;5.20;;;3.00;;
49510;SDS011;35413;48.776;9.204;2023-02-08T13:48:42;6.18;;;3.28;;
49510;SDS011;35413;48.776;9.204;2023-02-08T13:51:42;4.68;;;2.83;;
49510;SDS011;35413;48.776;9.204;2023-02-08T13:59:02;5.43;;;2.78;;
49510;SDS011;35413;48.776;9.204;2023-02-08T14:01:33;4.65;;;2.58;;
49510;SDS011;35413;48.776;9.204;2023-02-08T14:09:00;4.03;;;2.45;;
49510;SDS011;35413;48.776;9.204;2023-02-08T14:11:34;7.57;;;3.25;;
49510;SDS011;35413;48.776;9.204;2023-02-08T14:14:26;3.90;;;2.35;;
49510;SDS011;35413;48.776;9.204;2023-02-08T14:19:38;5.20;;;2.63;;
49510;SDS011;35413;48.776;9.204;2023-02-08T14:27:05;3.80;;;2.28;;
49510;SDS011;35413;48.776;9.204;2023-02-08T14:29:32;4.82;;;2.58;;
49510;SDS011;35413;48.776;9.204;2023-02-08T14:31:58;6.28;;;2.47;;
49510;SDS011;35413;48.776;9.204;2023-02-08T14:34:29;3.17;;;2.47;;
49510;SDS011;35413;48.776;9.204;2023-02-08T14:36:57;5.15;;;2.33;;
49510;SDS011;35413;48.776;9.204;2023-02-08T14:39:28;3.13;;;2.08;;
49510;SDS011;35413;48.776;9.204;2023-02-08T14:41:58;5.03;;;2.70;;
49510;SDS011;35413;48.776;9.204;2023-02-08T14:47:10;5.53;;;2.97;;
49510;SDS011;35413;48.776;9.204;2023-02-08T14:49:38;4.40;;;2.38;;
49510;SDS011;35413;48.776;9.204;2023-02-08T14:52:08;3.97;;;2.60;;
49510;SDS011;35413;48.776;9.204;2023-02-08T14:54:37;5.00;;;2.70;;
49510;SDS011;35413;48.776;9.204;2023-02-08T14:57:09;4.95;;;2.45;;
49510;SDS011;35413;48.776;9.204;2023-02-08T14:59:39;5.57;;;2.85;;
49510;SDS011;35413;48.776;9.204;2023-02-08T15:02:14;5.25;;;3.08;;
49510;SDS011;35413;48.776;9.204;2023-02-08T15:04:44;5.75;;;2.72;;
49510;SDS011;35413;48.776;9.204;2023-02-08T15:07:14;6.43;;;3.05;;
49510;SDS011;35413;48.776;9.204;2023-02-08T15:09:42;6.50;;;1.98;;
49510;SDS011;35413;48.776;9.204;2023-02-08T15:15:21;6.18;;;2.22;;
49510;SDS011;35413;48.776;9.204;2023-02-08T15:17:49;4.60;;;2.47;;
49510;SDS011;35413;48.776;9.204;2023-02-08T15:20:17;3.33;;;2.20;;
49510;SDS011;35413;48.776;9.204;2023-02-08T15:22:44;4.53;;;2.50;;
49510;SDS011;35413;48.776;9.204;2023-02-08T15:27:47;4.38;;;2.30;;
49510;SDS011;35413;48.776;9.204;2023-02-08T15:30:27;4.70;;;2.50;;
49510;SDS011;35413;48.776;9.204;2023-02-08T15:32:54;3.20;;;2.03;;
49510;SDS011;35413;48.776;9.204;2023-02-08T15:35:20;3.78;;;2.38;;
49510;SDS011;35413;48.776;9.204;2023-02-08T15:37:48;3.30;;;2.15;;
49510;SDS011;35413;48.776;9.204;2023-02-08T15:40:22;4.93;;;2.92;;
49510;SDS011;35413;48.776;9.204;2023-02-08T15:42:48;5.10;;;2.60;;
49510;SDS011;35413;48.776;9.204;2023-02-08T15:45:21;5.28;;;2.78;;
49510;SDS011;35413;48.776;9.204;2023-02-08T15:47:47;3.67;;;2.10;;
49510;SDS011;35413;48.776;9.204;2023-02-08T15:50:16;4.13;;;2.45;;
49510;SDS011;35413;48.776;9.204;2023-02-08T15:52:42;7.57;;;4.18;;
49510;SDS011;35413;48.776;9.204;2023-02-08T15:55:11;4.28;;;2.20;;
49510;SDS011;35413;48.776;9.204;2023-02-08T15:57:43;4.45;;;1.95;;
49510;SDS011;35413;48.776;9.204;2023-02-08T16:00:15;4.63;;;2.67;;
49510;SDS011;35413;48.776;9.204;2023-02-08T16:02:41;3.95;;;2.38;;
49510;SDS011;35413;48.776;9.204;2023-02-08T16:05:17;4.68;;;2.15;;
49510;SDS011;35413;48.776;9.204;2023-02-08T16:07:44;2.88;;;1.90;;
49510;SDS011;35413;48.776;9.204;2023-02-08T16:10:20;3.33;;;2.22;;
49510;SDS011;35413;48.776;9.204;2023-02-08T16:12:54;3.53;;;2.20;;
49510;SDS011;35413;48.776;9.204;2023-02-08T16:15:38;3.30;;;2.53;;
49510;SDS011;35413;48.776;9.204;2023-02-08T16:18:04;3.05;;;2.10;;
49510;SDS011;35413;48.776;9.204;2023-02-08T16:20:34;4.30;;;2.58;;
49510;SDS011;35413;48.776;9.204;2023-02-08T16:23:20;3.67;;;2.40;;
49510;SDS011;35413;48.776;9.204;2023-02-08T16:25:47;4.38;;;2.40;;
49510;SDS011;35413;48.776;9.204;2023-02-08T16:30:48;6.63;;;2.53;;
49510;SDS011;35413;48.776;9.204;2023-02-08T16:33:15;3.40;;;2.40;;
49510;SDS011;35413;48.776;9.204;2023-02-08T16:35:41;3.88;;;2.42;;
49510;SDS011;35413;48.776;9.204;2023-02-08T16:38:07;2.85;;;2.03;;
49510;SDS011;35413;48.776;9.204;2023-02-08T16:43:24;5.43;;;2.78;;
49510;SDS011;35413;48.776;9.204;2023-02-08T16:48:34;4.07;;;2.38;;
49510;SDS011;35413;48.776;9.204;2023-02-08T16:51:04;3.55;;;2.40;;
49510;SDS011;35413;48.776;9.204;2023-02-08T16:53:30;5.22;;;2.50;;
49510;SDS011;35413;48.776;9.204;2023-02-08T16:55:56;8.05;;;2.75;;
49510;SDS011;35413;48.776;9.204;2023-02-08T16:58:23;3.47;;;2.28;;
49510;SDS011;35413;48.776;9.204;2023-02-08T17:00:49;3.58;;;2.15;;
49510;SDS011;35413;48.776;9.204;2023-02-08T17:03:15;4.05;;;2.58;;
49510;SDS011;35413;48.776;9.204;2023-02-08T17:05:41;6.82;;;2.60;;
49510;SDS011;35413;48.776;9.204;2023-02-08T17:08:10;3.72;;;2.35;;
49510;SDS011;35413;48.776;9.204;2023-02-08T17:10:37;4.70;;;2.30;;
49510;SDS011;35413;48.776;9.204;2023-02-08T17:13:03;5.63;;;2.38;;
49510;SDS011;35413;48.776;9.204;2023-02-08T17:15:29;4.43;;;2.60;;
49510;SDS011;35413;48.776;9.204;2023-02-08T17:17:55;6.03;;;2.88;;
49510;SDS011;35413;48.776;9.204;2023-02-08T17:20:23;6.53;;;2.63;;
49510;SDS011;35413;48.776;9.204;2023-02-08T17:22:49;5.28;;;2.90;;